Time;durP1;ratioP1;P1;durP2;ratioP2;P2;SDS_P1;SDS_P2;PMS_P1;PMS_P2;Temp;Humidity;BMP_temperature;BMP_pressure;BME280_temperature;BME280_humidity;BME280_pressure;Samples;Min_cycle;Max_cycle;Signal;HPM_P1;HPM_P2
2022/04/05 00:01:10;;;;;;;;;;;;;;;8.90;100.00;100524.13;5106733;27;19934;-78
2022/04/05 00:03:35;;;;;;;;;;;;;;;8.93;100.00;100528.50;5087148;28;20389;-77
2022/04/05 00:06:01;;;;;;;;;;;;;;;8.91;100.00;100530.97;5107315;27;19941;-78
2022/04/05 00:08:26;;;;;;;;;;;;;;;8.89;100.00;100535.22;5108160;27;19922;-78
2022/04/05 00:10:51;;;;;;;;;;;;;;;8.89;100.00;100537.78;5108636;27;19923;-78
2022/04/05 00:13:17;;;;;;;;;;;;;;;8.87;100.00;100526.63;5113093;27;20313;-79
2022/04/05 00:15:42;;;;;;;;;;;;;;;8.87;100.00;100547.13;5108924;28;20006;-79
2022/04/05 00:18:07;;;;;;;;;;;;;;;8.87;100.00;100542.00;5106107;28;20497;-79
2022/04/05 00:20:34;;;;;;;;;;;;;;;8.88;100.00;100548.84;5110896;28;19931;-79
2022/04/05 00:22:59;;;;;;;;;;;;;;;8.88;100.00;100535.16;5124614;28;19935;-78
2022/04/05 00:25:24;;;;;;;;;;;;;;;8.87;100.00;100542.00;5118646;28;19928;-80
2022/04/05 00:27:49;;;;;;;;;;;;;;;8.88;100.00;100550.56;5132232;27;19947;-79
2022/04/05 00:30:15;;;;;;;;;;;;;;;8.84;100.00;100542.75;5117224;28;19975;-79
2022/04/05 00:32:41;;;;;;;;;;;;;;;8.84;100.00;100544.44;5114490;28;19920;-79
2022/04/05 00:35:06;;;;;;;;;;;;;;;8.89;100.00;100552.28;5107652;28;19932;-79
2022/04/05 00:37:31;;;;;;;;;;;;;;;8.85;100.00;100551.31;5109593;27;19970;-79
2022/04/05 00:39:57;;;;;;;;;;;;;;;8.84;100.00;100549.56;5124324;28;20018;-79
2022/04/05 00:42:22;;;;;;;;;;;;;;;8.85;100.00;100549.63;5112802;28;19935;-80
2022/04/05 00:44:47;;;;;;;;;;;;;;;8.85;100.00;100551.31;5119037;28;20040;-79
2022/04/05 00:47:17;;;;;;;;;;;;;;;8.85;100.00;100549.63;5117841;28;19931;-80
2022/04/05 00:49:45;;;;;;;;;;;;;;;8.89;100.00;100545.47;5115242;28;19916;-79
2022/04/05 00:52:11;;;;;;;;;;;;;;;8.83;100.00;100546.16;5112109;28;19920;-79
2022/04/05 00:54:37;;;;;;;;;;;;;;;8.84;100.00;100550.44;5119034;28;19916;-80
2022/04/05 00:57:03;;;;;;;;;;;;;;;8.82;100.00;100552.09;5120402;28;19920;-79
2022/04/05 00:59:30;;;;;;;;;;;;;;;8.82;100.00;100548.66;5122280;28;19920;-79
2022/04/05 01:01:56;;;;;;;;;;;;;;;8.81;100.00;100549.50;5119276;28;19915;-79
2022/04/05 01:04:22;;;;;;;;;;;;;;;8.82;100.00;100548.66;5119779;28;19911;-79
2022/04/05 01:06:47;;;;;;;;;;;;;;;8.82;100.00;100556.38;5129145;28;19989;-79
2022/04/05 01:09:15;;;;;;;;;;;;;;;8.81;100.00;100557.19;5127641;28;19929;-79
2022/04/05 01:11:43;;;;;;;;;;;;;;;8.81;100.00;100550.38;5120155;28;19959;-78
2022/04/05 01:14:08;;;;;;;;;;;;;;;8.82;100.00;100554.66;5126679;28;19927;-79
2022/04/05 01:16:35;;;;;;;;;;;;;;;8.81;100.00;100554.63;5124932;28;19923;-79
2022/04/05 01:19:00;;;;;;;;;;;;;;;8.80;100.00;100548.63;5125098;28;19924;-78
2022/04/05 01:21:27;;;;;;;;;;;;;;;8.80;100.00;100558.88;5118827;28;19938;-79
2022/04/05 01:24:05;;;;;;;;;;;;;;;8.81;100.00;100554.63;5115574;28;19979;-78
2022/04/05 01:26:40;;;;;;;;;;;;;;;8.82;100.00;100566.63;5116768;28;20298;-78
2022/04/05 01:29:06;;;;;;;;;;;;;;;8.81;100.00;100558.06;5116545;28;20772;-78
2022/04/05 01:31:35;;;;;;;;;;;;;;;8.81;100.00;100563.19;5109180;28;19927;-78
2022/04/05 01:34:00;;;;;;;;;;;;;;;8.80;100.00;100561.47;5110719;28;19995;-78
2022/04/05 01:36:26;;;;;;;;;;;;;;;8.79;100.00;100566.50;5112851;28;19989;-78
2022/04/05 01:38:51;;;;;;;;;;;;;;;8.79;100.00;100566.50;5121370;28;19924;-78
2022/04/05 01:41:16;;;;;;;;;;;;;;;8.79;100.00;100566.50;5100826;22;19958;-72
2022/04/05 01:43:42;;;;;;;;;;;;;;;8.77;100.00;100561.34;5083647;28;19924;-71
2022/04/05 01:46:07;;;;;;;;;;;;;;;8.77;100.00;100563.91;5082396;28;20440;-72
2022/04/05 01:48:32;;;;;;;;;;;;;;;8.79;100.00;100561.38;5079285;28;19924;-72
2022/04/05 01:50:57;;;;;;;;;;;;;;;8.77;100.00;100563.03;5079851;28;19916;-73
2022/04/05 01:53:23;;;;;;;;;;;;;;;8.75;100.00;100563.00;5085694;28;19919;-71
2022/04/05 01:55:48;;;;;;;;;;;;;;;8.77;100.00;100568.16;5080644;28;20435;-72
2022/04/05 01:58:13;;;;;;;;;;;;;;;8.78;100.00;100564.78;5082144;28;19928;-72
2022/04/05 02:00:38;;;;;;;;;;;;;;;8.76;100.00;100563.88;5065710;28;19923;-72
2022/04/05 02:03:04;;;;;;;;;;;;;;;8.74;100.00;100562.97;5080931;28;19963;-72
2022/04/05 02:05:29;;;;;;;;;;;;;;;8.73;100.00;100563.75;5079088;28;19924;-72
2022/04/05 02:07:54;;;;;;;;;;;;;;;8.73;100.00;100564.63;5067391;28;19920;-73
2022/04/05 02:10:20;;;;;;;;;;;;;;;8.72;100.00;100562.88;5067379;28;20281;-72
2022/04/05 02:12:45;;;;;;;;;;;;;;;8.73;100.00;100571.44;5066706;28;19952;-72
2022/04/05 02:15:10;;;;;;;;;;;;;;;8.79;100.00;100561.38;5067134;28;20325;-72
2022/04/05 02:17:36;;;;;;;;;;;;;;;8.73;100.00;100564.63;5062812;28;19920;-70
2022/04/05 02:20:02;;;;;;;;;;;;;;;8.72;100.00;100564.59;5062410;28;20023;-71
2022/04/05 02:22:27;;;;;;;;;;;;;;;8.72;100.00;100568.03;5065576;28;20007;-72
2022/04/05 02:24:53;;;;;;;;;;;;;;;8.70;100.00;100566.25;5066001;28;19947;-72
2022/04/05 02:27:18;;;;;;;;;;;;;;;8.70;100.00;100581.63;5065161;28;19964;-71
2022/04/05 02:29:43;;;;;;;;;;;;;;;8.69;100.00;100570.50;5062879;28;19921;-72
2022/04/05 02:32:08;;;;;;;;;;;;;;;8.72;100.00;100569.72;5066506;28;19978;-72
2022/04/05 02:34:34;;;;;;;;;;;;;;;8.68;100.00;100573.91;5066974;28;19920;-72
2022/04/05 02:36:59;;;;;;;;;;;;;;;8.68;100.00;100578.16;5081499;28;20781;-71
2022/04/05 02:39:24;;;;;;;;;;;;;;;8.69;100.00;100569.63;5065664;28;20327;-71
2022/04/05 02:41:49;;;;;;;;;;;;;;;8.65;100.00;100575.47;5068115;28;19920;-72
2022/04/05 02:44:15;;;;;;;;;;;;;;;8.64;100.00;100582.31;5068283;28;19928;-71
2022/04/05 02:46:40;;;;;;;;;;;;;;;8.64;100.00;100581.44;5071727;28;19927;-71
2022/04/05 02:49:06;;;;;;;;;;;;;;;8.63;100.00;100580.56;5070560;28;19982;-71
2022/04/05 02:51:31;;;;;;;;;;;;;;;8.64;100.00;100578.88;5067447;28;20011;-72
2022/04/05 02:53:56;;;;;;;;;;;;;;;8.62;100.00;100572.84;5067677;28;20369;-70
2022/04/05 02:56:22;;;;;;;;;;;;;;;8.61;100.00;100569.38;5068475;28;20373;-72
2022/04/05 02:58:48;;;;;;;;;;;;;;;8.63;100.00;100569.44;5067091;28;19928;-72
2022/04/05 03:01:13;;;;;;;;;;;;;;;8.64;100.00;100564.38;5067984;28;19920;-72
2022/04/05 03:03:39;;;;;;;;;;;;;;;8.60;100.00;100568.50;5067941;28;19974;-72
2022/04/05 03:06:04;;;;;;;;;;;;;;;8.58;100.00;100564.16;5069815;28;19927;-72
2022/04/05 03:08:29;;;;;;;;;;;;;;;8.57;100.00;100562.44;5067153;28;19925;-71
2022/04/05 03:10:55;;;;;;;;;;;;;;;8.59;100.00;100573.59;5069044;28;19956;-71
2022/04/05 03:13:20;;;;;;;;;;;;;;;8.55;100.00;100570.09;5069692;28;19950;-71
2022/04/05 03:15:46;;;;;;;;;;;;;;;8.53;100.00;100571.72;5070828;28;20023;-71
2022/04/05 03:18:11;;;;;;;;;;;;;;;8.54;100.00;100572.56;5068950;28;19950;-72
2022/04/05 03:20:36;;;;;;;;;;;;;;;8.55;100.00;100567.53;5066768;28;19993;-72
2022/04/05 03:23:02;;;;;;;;;;;;;;;8.54;100.00;100576.00;5067927;28;19927;-71
2022/04/05 03:25:27;;;;;;;;;;;;;;;8.53;100.00;100574.28;5069261;28;19925;-71
2022/04/05 03:27:53;;;;;;;;;;;;;;;8.55;100.00;100572.66;5066508;28;19917;-71
2022/04/05 03:30:19;;;;;;;;;;;;;;;8.55;100.00;100567.53;5068158;28;19923;-72
2022/04/05 03:32:44;;;;;;;;;;;;;;;8.56;100.00;100566.69;5069351;28;20019;-72
2022/04/05 03:35:10;;;;;;;;;;;;;;;8.56;100.00;100563.25;5070672;28;20015;-72
2022/04/05 03:37:35;;;;;;;;;;;;;;;8.55;100.00;100567.53;5065783;28;19920;-71
2022/04/05 03:40:01;;;;;;;;;;;;;;;8.55;100.00;100559.84;5087925;28;20022;-72
2022/04/05 03:42:26;;;;;;;;;;;;;;;8.61;100.00;100564.25;5067532;28;19924;-72
2022/04/05 03:44:51;;;;;;;;;;;;;;;8.59;100.00;100561.66;5067884;28;19944;-72
2022/04/05 03:47:17;;;;;;;;;;;;;;;8.56;100.00;100566.69;5069032;28;19925;-72
2022/04/05 03:49:43;;;;;;;;;;;;;;;8.57;100.00;100559.88;5085505;28;20378;-71
2022/04/05 03:52:08;;;;;;;;;;;;;;;8.56;100.00;100564.13;5066834;28;19974;-71
2022/04/05 03:54:33;;;;;;;;;;;;;;;8.55;100.00;100562.41;5066744;28;19931;-72
2022/04/05 03:56:59;;;;;;;;;;;;;;;8.61;100.00;100559.13;5069647;28;19927;-71
2022/04/05 03:59:24;;;;;;;;;;;;;;;8.59;100.00;100565.91;5068712;28;19925;-71
2022/04/05 04:01:49;;;;;;;;;;;;;;;8.58;100.00;100564.16;5070652;28;20018;-71
2022/04/05 04:04:14;;;;;;;;;;;;;;;8.65;100.00;100553.28;5067641;28;19920;-72
2022/04/05 04:06:40;;;;;;;;;;;;;;;8.58;100.00;100561.59;5067419;28;20007;-71
2022/04/05 04:09:05;;;;;;;;;;;;;;;8.60;100.00;100565.06;5070462;28;20015;-71
2022/04/05 04:11:30;;;;;;;;;;;;;;;8.58;100.00;100559.03;5068121;28;19954;-71
2022/04/05 04:13:56;;;;;;;;;;;;;;;8.58;100.00;100565.03;5066526;28;19921;-71
2022/04/05 04:16:21;;;;;;;;;;;;;;;8.59;100.00;100550.53;5068662;28;19978;-70
2022/04/05 04:18:46;;;;;;;;;;;;;;;8.56;100.00;100561.56;5065704;28;19928;-71
2022/04/05 04:21:12;;;;;;;;;;;;;;;8.57;100.00;100558.19;5066390;28;19920;-72
2022/04/05 04:23:37;;;;;;;;;;;;;;;8.55;100.00;100559.84;5062487;28;20743;-72
2022/04/05 04:26:02;;;;;;;;;;;;;;;8.56;100.00;100553.88;5068339;28;20300;-72
2022/04/05 04:28:28;;;;;;;;;;;;;;;8.58;100.00;100556.47;5070568;28;19955;-71
2022/04/05 04:30:54;;;;;;;;;;;;;;;8.62;100.00;100553.19;5066752;28;19916;-72
2022/04/05 04:33:19;;;;;;;;;;;;;;;8.58;100.00;100554.78;5064736;28;19935;-72
2022/04/05 04:35:45;;;;;;;;;;;;;;;8.56;100.00;100556.44;5045778;28;20023;-71
2022/04/05 04:38:12;;;;;;;;;;;;;;;8.57;100.00;100558.19;5068442;28;19986;-71
2022/04/05 04:40:37;;;;;;;;;;;;;;;8.56;100.00;100553.88;5064829;28;19936;-72
2022/04/05 04:43:03;;;;;;;;;;;;;;;8.57;100.00;100563.31;5063185;28;19928;-71
2022/04/05 04:45:31;;;;;;;;;;;;;;;8.57;100.00;100554.75;5065546;28;19984;-72
2022/04/05 04:47:56;;;;;;;;;;;;;;;8.55;100.00;100559.84;5061030;28;19924;-71
2022/04/05 04:50:21;;;;;;;;;;;;;;;8.53;100.00;100563.16;5064576;28;19929;-71
2022/04/05 04:52:47;;;;;;;;;;;;;;;8.56;100.00;100559.00;5067261;28;19982;-71
2022/04/05 04:55:12;;;;;;;;;;;;;;;8.56;100.00;100565.81;5065760;28;19924;-70
2022/04/05 04:57:37;;;;;;;;;;;;;;;8.58;100.00;100566.72;5068496;28;20296;-73
2022/04/05 05:00:03;;;;;;;;;;;;;;;8.56;100.00;100564.13;5050128;28;19976;-70
2022/04/05 05:02:29;;;;;;;;;;;;;;;8.55;100.00;100570.09;5062518;28;19970;-72
2022/04/05 05:04:54;;;;;;;;;;;;;;;8.62;100.00;100567.72;5065511;28;20143;-74
2022/04/05 05:07:19;;;;;;;;;;;;;;;8.61;100.00;100564.25;5061872;28;19935;-74
2022/04/05 05:09:45;;;;;;;;;;;;;;;8.65;100.00;100572.91;5060894;28;19928;-72
2022/04/05 05:12:10;;;;;;;;;;;;;;;8.60;100.00;100567.63;5063539;28;19923;-72
2022/04/05 05:14:39;;;;;;;;;;;;;;;8.60;100.00;100565.06;5064400;28;19925;-72
2022/04/05 05:17:05;;;;;;;;;;;;;;;8.58;100.00;100566.72;5064520;28;20115;-72
2022/04/05 05:19:30;;;;;;;;;;;;;;;8.58;100.00;100580.41;5063793;28;20301;-72
2022/04/05 05:21:56;;;;;;;;;;;;;;;8.58;100.00;100572.72;5070353;28;20387;-72
2022/04/05 05:24:21;;;;;;;;;;;;;;;8.60;100.00;100571.06;5064725;28;19916;-72
2022/04/05 05:26:46;;;;;;;;;;;;;;;8.61;100.00;100587.31;5066201;28;19927;-72
2022/04/05 05:29:12;;;;;;;;;;;;;;;8.63;100.00;100584.81;5067815;28;19924;-72
2022/04/05 05:31:38;;;;;;;;;;;;;;;8.60;100.00;100575.31;5066328;28;19921;-72
2022/04/05 05:34:03;;;;;;;;;;;;;;;8.63;100.00;100575.44;5063667;28;20751;-72
2022/04/05 05:36:28;;;;;;;;;;;;;;;8.62;100.00;100577.97;5064310;28;19927;-72
2022/04/05 05:38:54;;;;;;;;;;;;;;;8.65;100.00;100584.03;5066683;28;19920;-72
2022/04/05 05:41:19;;;;;;;;;;;;;;;8.62;100.00;100577.97;5067694;28;19955;-72
2022/04/05 05:43:45;;;;;;;;;;;;;;;8.64;100.00;100589.13;5080257;28;19928;-72
2022/04/05 05:46:11;;;;;;;;;;;;;;;8.65;100.00;100584.03;5065382;28;20040;-72
2022/04/05 05:48:37;;;;;;;;;;;;;;;8.65;100.00;100590.88;5086320;28;19925;-71
2022/04/05 05:51:02;;;;;;;;;;;;;;;8.69;100.00;100591.00;5064498;28;19927;-72
2022/04/05 05:53:27;;;;;;;;;;;;;;;8.66;100.00;100590.03;5066177;28;20312;-73
2022/04/05 05:55:53;;;;;;;;;;;;;;;8.65;100.00;100590.88;5064785;28;20016;-74
2022/04/05 05:58:18;;;;;;;;;;;;;;;8.64;100.00;100595.13;5054471;28;19973;-72
2022/04/05 06:00:43;;;;;;;;;;;;;;;8.66;100.00;100600.28;5064702;28;19986;-72
2022/04/05 06:03:10;;;;;;;;;;;;;;;8.68;100.00;100598.66;5063400;28;20284;-72
2022/04/05 06:05:36;;;;;;;;;;;;;;;8.65;100.00;100596.84;5062913;28;19978;-71
2022/04/05 06:08:01;;;;;;;;;;;;;;;8.68;100.00;100593.53;5065421;28;21555;-72
2022/04/05 06:10:27;;;;;;;;;;;;;;;8.67;100.00;100594.31;5062515;28;19932;-73
2022/04/05 06:12:55;;;;;;;;;;;;;;;8.68;100.00;100604.66;5064792;28;20179;-72
2022/04/05 06:15:21;;;;;;;;;;;;;;;8.69;100.00;100601.25;5066255;28;19951;-73
2022/04/05 06:17:48;;;;;;;;;;;;;;;8.70;100.00;100604.69;5060913;28;20345;-72
2022/04/05 06:20:16;;;;;;;;;;;;;;;8.73;100.00;100602.22;5059190;28;19948;-73
2022/04/05 06:22:49;;;;;;;;;;;;;;;8.74;100.00;100604.84;5061998;28;19944;-73
2022/04/05 06:25:15;;;;;;;;;;;;;;;8.78;100.00;100609.22;5062596;28;20367;-73
2022/04/05 06:27:41;;;;;;;;;;;;;;;8.79;100.00;100604.97;5083698;28;20007;-72
2022/04/05 06:30:07;;;;;;;;;;;;;;;8.78;100.00;100614.34;5068298;28;20000;-73
2022/04/05 06:32:32;;;;;;;;;;;;;;;8.78;100.00;100610.91;5071074;28;20036;-72
2022/04/05 06:34:57;;;;;;;;;;;;;;;8.78;100.00;100614.34;5063692;28;19969;-72
2022/04/05 06:37:23;;;;;;;;;;;;;;;8.82;100.00;100613.63;5066254;28;19916;-72
2022/04/05 06:39:48;;;;;;;;;;;;;;;8.86;100.00;100618.03;5064197;28;20054;-74
2022/04/05 06:42:13;;;;;;;;;;;;;;;8.98;100.00;100609.88;5064578;28;19921;-72
2022/04/05 06:44:39;;;;;;;;;;;;;;;8.98;100.00;100614.09;5063752;28;20008;-72
2022/04/05 06:47:06;;;;;;;;;;;;;;;9.04;100.00;100621.97;5066749;28;20467;-73
2022/04/05 06:49:31;;;;;;;;;;;;;;;9.02;100.00;100619.38;5066620;28;19920;-73
2022/04/05 06:51:57;;;;;;;;;;;;;;;9.03;100.00;100625.38;5064150;28;19924;-72
2022/04/05 06:54:23;;;;;;;;;;;;;;;9.01;100.00;100629.59;5068709;28;20408;-73
2022/04/05 06:56:48;;;;;;;;;;;;;;;8.98;100.00;100634.59;5066625;28;20056;-72
2022/04/05 06:59:13;;;;;;;;;;;;;;;8.94;100.00;100628.53;5049980;28;19979;-73
2022/04/05 07:01:38;;;;;;;;;;;;;;;8.93;100.00;100633.63;5047299;28;19924;-72
2022/04/05 07:04:05;;;;;;;;;;;;;;;8.98;100.00;100630.38;5064775;28;19921;-72
2022/04/05 07:06:31;;;;;;;;;;;;;;;8.94;100.00;100631.09;5063664;28;20426;-72
2022/04/05 07:08:56;;;;;;;;;;;;;;;8.97;100.00;100638.88;5065158;28;19913;-73
2022/04/05 07:11:21;;;;;;;;;;;;;;;8.99;100.00;100636.38;5063703;28;19917;-72
2022/04/05 07:13:46;;;;;;;;;;;;;;;9.08;100.00;100634.06;5085186;28;19920;-72
2022/04/05 07:16:12;;;;;;;;;;;;;;;9.03;100.00;100644.19;5067079;28;19917;-73
2022/04/05 07:18:37;;;;;;;;;;;;;;;9.02;100.00;100626.19;5063127;28;20400;-72
2022/04/05 07:21:02;;;;;;;;;;;;;;;9.07;100.00;100635.78;5064953;28;19936;-74
2022/04/05 07:23:28;;;;;;;;;;;;;;;9.07;100.00;100640.91;5063764;28;20438;-72
2022/04/05 07:25:53;;;;;;;;;;;;;;;9.11;100.00;100635.06;5068935;28;19920;-72
2022/04/05 07:28:18;;;;;;;;;;;;;;;9.11;100.00;100629.91;5074268;28;19955;-72
2022/04/05 07:30:43;;;;;;;;;;;;;;;9.13;100.00;100637.66;5069804;28;20448;-73
2022/04/05 07:33:09;;;;;;;;;;;;;;;9.20;100.00;100631.00;5070802;28;19916;-73
2022/04/05 07:35:34;;;;;;;;;;;;;;;9.23;100.00;100625.97;5068702;28;19920;-73
2022/04/05 07:38:00;;;;;;;;;;;;;;;9.20;100.00;100631.00;5069100;28;19916;-72
2022/04/05 07:40:27;;;;;;;;;;;;;;;9.20;100.00;100625.88;5078569;28;19924;-73
2022/04/05 07:42:52;;;;;;;;;;;;;;;9.30;100.00;100628.75;5072976;28;20298;-73
2022/04/05 07:45:18;;;;;;;;;;;;;;;9.24;100.00;100623.47;5068938;28;20019;-73
2022/04/05 07:47:44;;;;;;;;;;;;;;;9.33;100.00;100626.28;5063217;28;19916;-73
2022/04/05 07:50:09;;;;;;;;;;;;;;;9.28;100.00;100622.72;5071795;28;19916;-72
2022/04/05 07:52:35;;;;;;;;;;;;;;;9.24;100.00;100627.72;5054293;28;20010;-73
2022/04/05 07:55:00;;;;;;;;;;;;;;;9.21;100.00;100630.19;5068915;28;20353;-74
2022/04/05 07:57:26;;;;;;;;;;;;;;;9.24;100.00;100631.16;5068720;28;19916;-73
2022/04/05 07:59:51;;;;;;;;;;;;;;;9.22;100.00;100629.34;5065624;28;19932;-73
2022/04/05 08:02:16;;;;;;;;;;;;;;;9.20;100.00;100629.31;5074072;28;20376;-74
2022/04/05 08:04:41;;;;;;;;;;;;;;;9.27;100.00;100635.50;5067528;28;20015;-73
2022/04/05 08:07:07;;;;;;;;;;;;;;;9.34;100.00;100627.13;5067410;28;19962;-75
2022/04/05 08:09:33;;;;;;;;;;;;;;;9.36;100.00;100639.22;5069564;28;19956;-73
2022/04/05 08:11:58;;;;;;;;;;;;;;;9.37;100.00;100645.22;5074746;28;19989;-73
2022/04/05 08:14:27;;;;;;;;;;;;;;;9.42;100.00;100641.09;5073982;28;19925;-74
2022/04/05 08:16:54;;;;;;;;;;;;;;;9.41;100.00;100644.47;5075082;28;19939;-74
2022/04/05 08:19:19;;;;;;;;;;;;;;;9.41;100.00;100641.91;5067893;28;20010;-73
2022/04/05 08:21:44;;;;;;;;;;;;;;;9.39;100.00;100646.97;5069309;28;19987;-73
2022/04/05 08:24:10;;;;;;;;;;;;;;;9.37;100.00;100646.06;5068738;28;20409;-74
2022/04/05 08:26:35;;;;;;;;;;;;;;;9.38;100.00;100650.38;5067271;28;19920;-74
2022/04/05 08:29:00;;;;;;;;;;;;;;;9.43;100.00;100652.22;5064303;28;19927;-71
2022/04/05 08:31:26;;;;;;;;;;;;;;;9.41;100.00;100659.88;5069514;28;20019;-74
2022/04/05 08:33:51;;;;;;;;;;;;;;;9.38;100.00;100652.06;5070103;28;19951;-74
2022/04/05 08:36:16;;;;;;;;;;;;;;;9.50;100.00;100657.56;5064458;28;19923;-73
2022/04/05 08:38:42;;;;;;;;;;;;;;;9.50;100.00;100652.44;5068723;28;19927;-73
2022/04/05 08:41:07;;;;;;;;;;;;;;;9.60;100.00;100658.72;5066755;28;19989;-72
2022/04/05 08:43:34;;;;;;;;;;;;;;;9.66;100.00;100656.31;5069676;28;19912;-72
2022/04/05 08:46:00;;;;;;;;;;;;;;;9.68;100.00;100660.66;5070147;28;20388;-72
2022/04/05 08:48:27;;;;;;;;;;;;;;;9.72;100.00;100671.91;5066419;28;20353;-74
2022/04/05 08:50:53;;;;;;;;;;;;;;;9.66;100.00;100659.75;5066408;28;20420;-73
2022/04/05 08:53:19;;;;;;;;;;;;;;;9.58;100.00;100665.47;5069917;28;20077;-74
2022/04/05 08:55:44;;;;;;;;;;;;;;;9.56;100.00;100665.44;5064825;28;19978;-73
2022/04/05 08:58:10;;;;;;;;;;;;;;;9.53;100.00;100667.06;5064241;28;19931;-73
2022/04/05 09:00:35;;;;;;;;;;;;;;;9.54;100.00;100671.38;5068489;28;20284;-74
2022/04/05 09:03:02;;;;;;;;;;;;;;;9.54;100.00;100661.97;5061665;28;19924;-71
2022/04/05 09:05:34;;;;;;;;;;;;;;;9.59;100.00;100664.69;5065016;28;19923;-73
2022/04/05 09:08:25;;;;;;;;;;;;;;;9.69;100.00;100664.09;5067654;28;20387;-73
2022/04/05 09:10:52;;;;;;;;;;;;;;;9.80;100.00;100669.53;5062542;28;19928;-73
2022/04/05 09:13:26;;;;;;;;;;;;;;;9.79;100.00;100670.38;5065620;28;19922;-72
2022/04/05 09:15:53;;;;;;;;;;;;;;;9.77;100.00;100672.00;5066631;28;19916;-70
2022/04/05 09:18:36;;;;;;;;;;;;;;;9.78;100.00;100666.94;5086135;28;19920;-72
2022/04/05 09:21:03;;;;;;;;;;;;;;;9.74;100.00;100672.81;5083406;28;20770;-73
2022/04/05 09:23:30;;;;;;;;;;;;;;;9.76;100.00;100667.69;5066488;28;19978;-72
2022/04/05 09:25:56;;;;;;;;;;;;;;;9.84;100.00;100663.69;5064790;28;19916;-72
2022/04/05 09:28:28;;;;;;;;;;;;;;;9.88;100.00;100670.63;5067527;28;20450;-73
2022/04/05 09:30:58;;;;;;;;;;;;;;;9.91;100.00;100676.72;5068666;28;19924;-72
2022/04/05 09:33:23;;;;;;;;;;;;;;;9.91;100.00;100676.72;5067002;28;20355;-72
2022/04/05 09:35:53;;;;;;;;;;;;;;;10.01;100.00;100679.53;5069941;28;20012;-74
2022/04/05 09:38:20;;;;;;;;;;;;;;;10.04;100.00;100674.47;5063955;28;19924;-73
2022/04/05 09:40:52;;;;;;;;;;;;;;;10.17;100.00;100674.84;5063745;28;19927;-74
2022/04/05 09:43:18;;;;;;;;;;;;;;;10.16;100.00;100678.25;5065979;28;19916;-73
2022/04/05 09:45:43;;;;;;;;;;;;;;;10.39;100.00;100690.88;5063355;28;20011;-73
2022/04/05 09:48:09;;;;;;;;;;;;;;;10.55;100.00;100687.84;5064364;28;19920;-73
2022/04/05 09:50:53;;;;;;;;;;;;;;;10.74;100.00;100678.91;5067225;28;19965;-73
2022/04/05 09:53:18;;;;;;;;;;;;;;;10.87;100.00;100687.78;5065634;28;20022;-73
2022/04/05 09:55:43;;;;;;;;;;;;;;;10.87;100.00;100685.22;5064023;28;19995;-73
2022/04/05 09:58:12;;;;;;;;;;;;;;;10.67;100.00;100680.44;5067907;28;19974;-73
2022/04/05 10:00:37;;;;;;;;;;;;;;;10.53;100.00;100688.66;5064715;28;20002;-73
2022/04/05 10:03:03;;;;;;;;;;;;;;;10.48;100.00;100681.69;5064529;28;20377;-73
2022/04/05 10:05:29;;;;;;;;;;;;;;;10.40;100.00;100679.75;5084753;28;20387;-73
2022/04/05 10:07:55;;;;;;;;;;;;;;;10.48;100.00;100689.41;5082663;28;20367;-73
2022/04/05 10:10:21;;;;;;;;;;;;;;;10.38;100.00;100690.00;5064113;28;19982;-73
2022/04/05 10:12:47;;;;;;;;;;;;;;;10.42;100.00;100689.25;5060387;28;20381;-73
2022/04/05 10:15:12;;;;;;;;;;;;;;;10.34;100.00;100689.88;5061007;28;19917;-72
2022/04/05 10:17:43;;;;;;;;;;;;;;;10.41;100.00;100697.78;5064061;28;19927;-73
2022/04/05 10:20:09;;;;;;;;;;;;;;;10.41;100.00;100691.78;5086006;28;19928;-73
2022/04/05 10:22:34;;;;;;;;;;;;;;;10.44;100.00;100699.59;5067729;28;20369;-71
2022/04/05 10:25:00;;;;;;;;;;;;;;;10.37;100.00;100695.09;5058540;28;20019;-73
2022/04/05 10:27:25;;;;;;;;;;;;;;;10.42;100.00;100693.50;5095202;28;19924;-72
2022/04/05 10:29:56;;;;;;;;;;;;;;;10.38;100.00;100695.16;5065712;28;19917;-73
2022/04/05 10:32:42;;;;;;;;;;;;;;;10.43;100.00;100697.81;5064266;28;19923;-73
2022/04/05 10:35:08;;;;;;;;;;;;;;;10.42;100.00;100701.22;5035899;28;19923;-73
2022/04/05 10:37:38;;;;;;;;;;;;;;;10.42;100.00;100701.22;5070015;28;20369;-73
2022/04/05 10:40:04;;;;;;;;;;;;;;;10.48;100.00;100699.69;5066338;28;20300;-73
2022/04/05 10:42:40;;;;;;;;;;;;;;;10.57;100.00;100691.34;5066672;28;19923;-73
2022/04/05 10:45:14;;;;;;;;;;;;;;;10.61;100.00;100697.41;5060415;28;19960;-73
2022/04/05 10:47:57;;;;;;;;;;;;;;;10.74;100.00;100690.06;5065733;28;20415;-72
2022/04/05 10:50:23;;;;;;;;;;;;;;;10.82;100.00;100692.81;5065130;28;20373;-73
2022/04/05 10:53:08;;;;;;;;;;;;;;;10.78;100.00;100690.13;5066536;28;19931;-73
2022/04/05 10:55:54;;;;;;;;;;;;;;;10.79;100.00;100692.72;5059824;28;19916;-73
2022/04/05 10:58:19;;;;;;;;;;;;;;;10.81;100.00;100691.09;5065293;28;20015;-73
2022/04/05 11:00:46;;;;;;;;;;;;;;;10.74;100.00;100692.66;5069098;28;20365;-74
2022/04/05 11:03:12;;;;;;;;;;;;;;;10.71;100.00;100694.25;5069528;28;19955;-74
2022/04/05 11:05:38;;;;;;;;;;;;;;;10.80;100.00;100685.88;5069116;28;19964;-73
2022/04/05 11:08:10;;;;;;;;;;;;;;;10.90;100.00;100683.56;5071105;28;19939;-73
2022/04/05 11:10:36;;;;;;;;;;;;;;;11.21;100.00;100687.72;5070460;28;20282;-74
2022/04/05 11:13:20;;;;;;;;;;;;;;;11.89;100.00;100697.81;5069092;28;19938;-74
2022/04/05 11:15:45;;;;;;;;;;;;;;;12.48;100.00;100685.16;5093713;28;19959;-74
2022/04/05 11:18:10;;;;;;;;;;;;;;;12.77;100.00;100689.94;5061874;28;19978;-74
2022/04/05 11:20:38;;;;;;;;;;;;;;;13.01;100.00;100679.13;5063487;28;19923;-74
2022/04/05 11:23:03;;;;;;;;;;;;;;;13.33;98.40;100680.50;5071325;28;19956;-74
2022/04/05 11:25:30;;;;;;;;;;;;;;;13.75;100.00;100681.91;5069689;28;19954;-74
2022/04/05 11:28:08;;;;;;;;;;;;;;;13.81;95.14;100687.16;5068978;28;19921;-74
2022/04/05 11:30:37;;;;;;;;;;;;;;;13.68;92.61;100683.53;5070081;28;19912;-74
2022/04/05 11:33:09;;;;;;;;;;;;;;;13.56;95.47;100687.69;5070879;28;19916;-73
2022/04/05 11:35:35;;;;;;;;;;;;;;;13.44;93.86;100679.78;5069852;28;20324;-73
2022/04/05 11:38:00;;;;;;;;;;;;;;;13.38;93.07;100689.19;5070511;28;19921;-74
2022/04/05 11:40:25;;;;;;;;;;;;;;;13.47;94.18;100684.97;5062716;28;19955;-73
2022/04/05 11:42:51;;;;;;;;;;;;;;;13.82;92.54;100665.63;5071308;28;19944;-74
2022/04/05 11:45:17;;;;;;;;;;;;;;;14.13;90.17;100674.56;5069761;28;19913;-73
2022/04/05 11:47:50;;;;;;;;;;;;;;;14.69;85.06;100673.44;5071606;28;20392;-73
2022/04/05 11:50:17;;;;;;;;;;;;;;;15.02;83.26;100676.25;5087656;28;20379;-73
2022/04/05 11:52:43;;;;;;;;;;;;;;;15.23;84.68;100680.72;5069391;28;20440;-73
2022/04/05 11:58:05;;;;;;;;;;;;;;;14.56;82.74;100682.81;5064842;28;19977;-73
2022/04/05 12:00:30;;;;;;;;;;;;;;;14.52;82.16;100673.28;5064405;28;19921;-75
2022/04/05 12:03:06;;;;;;;;;;;;;;;14.40;80.09;100668.81;5062008;28;19982;-73
2022/04/05 12:05:42;;;;;;;;;;;;;;;14.18;86.79;100666.88;5070583;28;20394;-72
2022/04/05 12:08:11;;;;;;;;;;;;;;;13.90;85.20;100673.47;5069390;28;19927;-73
2022/04/05 12:10:36;;;;;;;;;;;;;;;13.77;88.04;100669.88;5070318;28;19928;-74
2022/04/05 12:13:02;;;;;;;;;;;;;;;13.75;86.46;100671.56;5064323;28;20396;-74
2022/04/05 12:15:27;;;;;;;;;;;;;;;13.84;88.97;100671.69;5068380;28;19916;-73
2022/04/05 12:18:13;;;;;;;;;;;;;;;14.09;87.24;100661.63;5066630;28;19920;-73
2022/04/05 12:20:38;;;;;;;;;;;;;;;14.50;88.46;100669.81;5066635;28;19928;-73
2022/04/05 12:23:03;;;;;;;;;;;;;;;14.71;86.18;100674.28;5068725;28;19923;-73
2022/04/05 12:25:29;;;;;;;;;;;;;;;14.78;84.58;100681.25;5068597;28;19925;-73
2022/04/05 12:27:56;;;;;;;;;;;;;;;14.73;81.36;100678.63;5063421;28;19912;-74
2022/04/05 12:30:28;;;;;;;;;;;;;;;14.57;80.20;100674.19;5068357;28;20278;-73
2022/04/05 12:32:54;;;;;;;;;;;;;;;14.82;85.26;100671.81;5063670;28;19916;-73
2022/04/05 12:35:19;;;;;;;;;;;;;;;15.03;82.35;100672.81;5064476;28;20372;-73